Main page
METAR-TAF:

METAR-TAF

Airports :

Graz Airport

Graz, Austria

latitude: 47-00N, longitude: 015-26E, elevation: 340 m

Current weather observation

The report was made 21 minutes ago, at 09:50 UTC
Wind 3 kt from the South, varying between South/Southeast and West/Southwest
Temperature -1°C
Humidity 86%
Pressure 1023 hPa
Visibility: 8000 m
Overcast at a height of 900 ft

METAR: LOWG 060950Z 19003KT 150V250 8000 OVC009 M01/M03 Q1023 R17/19//95 NOSIG

Time: 11:11 (10:11 UTC)

Forecast

The report was made 1 hour and 41 minutes ago, at 08:30 UTC
Forecast valid from 06 at 08 UTC to 07 at 06 UTC
Wind 2 kt from variable directions
Visibility 10 km or more
Overcast at a height of 900 ft
Temporary
from 06 at 12 UTC to 06 at 17 UTC
Scattered clouds at a height of 1200 ft
Temporary
from 06 at 21 UTC to 07 at 06 UTC
Visibility: 0300 m
at a height of 200 ft
freezing fog

TAF: LOWG 060830Z 0608/0706 VRB02KT 9999 OVC009 TXM01/0614Z TNM02/0705Z TEMPO 0612/0617 SCT012 TEMPO 0621/0706 0300 FZFG VV002

Weather observations and forecasts of more than 4000 airports (METAR and TAF reports).

The available stations are represented by yellow and red dots on the map.

Hover mouse over dot to see the name of the station.

Then click to see weather observations and forecasts.

To change the map : click on the green buttons with a black cross to zoom in, on the green button with a dash to zoom out, or on the green arrows for adjacent maps.


METAR-TAF: